sensor_id;sensor_type;location;lat;lon;timestamp;P1;durP1;ratioP1;P2;durP2;ratioP2
11522;SDS011;70090;43.208;27.904;2023-07-24T00:00:44;8.90;;;8.10;;
11522;SDS011;70090;43.208;27.904;2023-07-24T00:03:11;9.40;;;8.50;;
11522;SDS011;70090;43.208;27.904;2023-07-24T00:05:38;9.33;;;8.43;;
11522;SDS011;70090;43.208;27.904;2023-07-24T00:08:06;10.93;;;8.50;;
11522;SDS011;70090;43.208;27.904;2023-07-24T00:10:33;9.70;;;8.47;;
11522;SDS011;70090;43.208;27.904;2023-07-24T00:12:59;9.77;;;8.77;;
11522;SDS011;70090;43.208;27.904;2023-07-24T00:15:28;9.10;;;8.20;;
11522;SDS011;70090;43.208;27.904;2023-07-24T00:17:55;10.70;;;9.13;;
11522;SDS011;70090;43.208;27.904;2023-07-24T00:20:22;10.17;;;9.17;;
11522;SDS011;70090;43.208;27.904;2023-07-24T00:22:49;9.70;;;8.70;;
11522;SDS011;70090;43.208;27.904;2023-07-24T00:25:17;9.10;;;8.20;;
11522;SDS011;70090;43.208;27.904;2023-07-24T00:27:44;9.30;;;8.27;;
11522;SDS011;70090;43.208;27.904;2023-07-24T00:30:11;11.43;;;8.60;;
11522;SDS011;70090;43.208;27.904;2023-07-24T00:32:38;13.37;;;8.90;;
11522;SDS011;70090;43.208;27.904;2023-07-24T00:35:05;14.20;;;8.97;;
11522;SDS011;70090;43.208;27.904;2023-07-24T00:37:33;17.00;;;9.13;;
11522;SDS011;70090;43.208;27.904;2023-07-24T00:40:00;17.83;;;9.57;;
11522;SDS011;70090;43.208;27.904;2023-07-24T00:42:28;12.83;;;9.47;;
11522;SDS011;70090;43.208;27.904;2023-07-24T00:44:55;15.63;;;9.63;;
11522;SDS011;70090;43.208;27.904;2023-07-24T00:47:22;16.17;;;10.13;;
11522;SDS011;70090;43.208;27.904;2023-07-24T00:49:49;14.00;;;9.83;;
11522;SDS011;70090;43.208;27.904;2023-07-24T00:52:16;12.47;;;9.43;;
11522;SDS011;70090;43.208;27.904;2023-07-24T00:54:43;18.57;;;9.83;;
11522;SDS011;70090;43.208;27.904;2023-07-24T00:57:11;16.77;;;10.00;;
11522;SDS011;70090;43.208;27.904;2023-07-24T00:59:41;19.37;;;10.17;;
11522;SDS011;70090;43.208;27.904;2023-07-24T01:02:08;15.37;;;9.87;;
11522;SDS011;70090;43.208;27.904;2023-07-24T01:04:35;20.00;;;10.37;;
11522;SDS011;70090;43.208;27.904;2023-07-24T01:07:04;18.60;;;10.50;;
11522;SDS011;70090;43.208;27.904;2023-07-24T01:09:31;26.37;;;10.70;;
11522;SDS011;70090;43.208;27.904;2023-07-24T01:11:59;26.60;;;9.90;;
11522;SDS011;70090;43.208;27.904;2023-07-24T01:14:32;25.13;;;11.00;;
11522;SDS011;70090;43.208;27.904;2023-07-24T01:17:04;18.07;;;10.03;;
11522;SDS011;70090;43.208;27.904;2023-07-24T01:19:36;13.80;;;9.40;;
11522;SDS011;70090;43.208;27.904;2023-07-24T01:22:09;19.97;;;9.97;;
11522;SDS011;70090;43.208;27.904;2023-07-24T01:24:47;19.90;;;9.60;;
11522;SDS011;70090;43.208;27.904;2023-07-24T01:27:24;14.07;;;8.70;;
11522;SDS011;70090;43.208;27.904;2023-07-24T01:29:51;13.40;;;9.30;;
11522;SDS011;70090;43.208;27.904;2023-07-24T01:32:18;11.03;;;8.60;;
11522;SDS011;70090;43.208;27.904;2023-07-24T01:34:45;13.77;;;9.60;;
11522;SDS011;70090;43.208;27.904;2023-07-24T01:37:13;14.53;;;9.63;;
11522;SDS011;70090;43.208;27.904;2023-07-24T01:39:40;14.33;;;9.70;;
11522;SDS011;70090;43.208;27.904;2023-07-24T01:42:09;12.90;;;9.83;;
11522;SDS011;70090;43.208;27.904;2023-07-24T01:44:38;13.53;;;9.80;;
11522;SDS011;70090;43.208;27.904;2023-07-24T01:47:05;12.40;;;9.60;;
11522;SDS011;70090;43.208;27.904;2023-07-24T01:49:32;12.33;;;9.97;;
11522;SDS011;70090;43.208;27.904;2023-07-24T01:51:59;12.23;;;9.87;;
11522;SDS011;70090;43.208;27.904;2023-07-24T01:54:26;13.07;;;10.80;;
11522;SDS011;70090;43.208;27.904;2023-07-24T01:56:53;17.00;;;11.57;;
11522;SDS011;70090;43.208;27.904;2023-07-24T01:59:19;16.23;;;11.27;;
11522;SDS011;70090;43.208;27.904;2023-07-24T02:01:47;15.00;;;11.70;;
11522;SDS011;70090;43.208;27.904;2023-07-24T02:04:14;19.90;;;12.30;;
11522;SDS011;70090;43.208;27.904;2023-07-24T02:06:41;19.97;;;12.40;;
11522;SDS011;70090;43.208;27.904;2023-07-24T02:09:08;22.73;;;12.37;;
11522;SDS011;70090;43.208;27.904;2023-07-24T02:11:36;16.37;;;12.40;;
11522;SDS011;70090;43.208;27.904;2023-07-24T02:14:03;16.93;;;12.10;;
11522;SDS011;70090;43.208;27.904;2023-07-24T02:16:29;16.90;;;11.90;;
11522;SDS011;70090;43.208;27.904;2023-07-24T02:18:57;13.67;;;11.70;;
11522;SDS011;70090;43.208;27.904;2023-07-24T02:21:24;18.93;;;12.10;;
11522;SDS011;70090;43.208;27.904;2023-07-24T02:23:51;18.57;;;12.30;;
11522;SDS011;70090;43.208;27.904;2023-07-24T02:26:18;20.70;;;12.60;;
11522;SDS011;70090;43.208;27.904;2023-07-24T02:28:45;26.43;;;12.30;;
11522;SDS011;70090;43.208;27.904;2023-07-24T02:31:12;21.53;;;12.93;;
11522;SDS011;70090;43.208;27.904;2023-07-24T02:33:40;13.93;;;12.43;;
11522;SDS011;70090;43.208;27.904;2023-07-24T02:36:08;19.23;;;12.67;;
11522;SDS011;70090;43.208;27.904;2023-07-24T02:38:35;15.43;;;13.07;;
11522;SDS011;70090;43.208;27.904;2023-07-24T02:41:02;18.23;;;13.23;;
11522;SDS011;70090;43.208;27.904;2023-07-24T02:43:28;17.30;;;13.40;;
11522;SDS011;70090;43.208;27.904;2023-07-24T02:45:59;17.30;;;13.27;;
11522;SDS011;70090;43.208;27.904;2023-07-24T02:48:27;21.10;;;13.93;;
11522;SDS011;70090;43.208;27.904;2023-07-24T02:50:54;15.50;;;12.97;;
11522;SDS011;70090;43.208;27.904;2023-07-24T02:53:22;21.13;;;14.07;;
11522;SDS011;70090;43.208;27.904;2023-07-24T02:55:49;18.80;;;12.97;;
11522;SDS011;70090;43.208;27.904;2023-07-24T02:58:16;18.23;;;13.97;;
11522;SDS011;70090;43.208;27.904;2023-07-24T03:00:43;15.07;;;13.67;;
11522;SDS011;70090;43.208;27.904;2023-07-24T03:03:09;18.73;;;13.40;;
11522;SDS011;70090;43.208;27.904;2023-07-24T03:05:36;16.60;;;13.07;;
11522;SDS011;70090;43.208;27.904;2023-07-24T03:08:04;16.47;;;12.97;;
11522;SDS011;70090;43.208;27.904;2023-07-24T03:10:32;20.83;;;12.77;;
11522;SDS011;70090;43.208;27.904;2023-07-24T03:12:59;13.80;;;11.50;;
11522;SDS011;70090;43.208;27.904;2023-07-24T03:15:25;15.70;;;11.30;;
11522;SDS011;70090;43.208;27.904;2023-07-24T03:17:51;17.00;;;11.50;;
11522;SDS011;70090;43.208;27.904;2023-07-24T03:20:19;14.53;;;11.23;;
11522;SDS011;70090;43.208;27.904;2023-07-24T03:22:47;14.13;;;11.43;;
11522;SDS011;70090;43.208;27.904;2023-07-24T03:25:13;14.07;;;11.43;;
11522;SDS011;70090;43.208;27.904;2023-07-24T03:27:42;13.60;;;11.23;;
11522;SDS011;70090;43.208;27.904;2023-07-24T03:30:09;16.23;;;11.70;;
11522;SDS011;70090;43.208;27.904;2023-07-24T03:32:36;14.27;;;12.87;;
11522;SDS011;70090;43.208;27.904;2023-07-24T03:35:04;18.20;;;15.50;;
11522;SDS011;70090;43.208;27.904;2023-07-24T03:37:31;17.67;;;15.50;;
11522;SDS011;70090;43.208;27.904;2023-07-24T03:39:58;19.73;;;16.90;;
11522;SDS011;70090;43.208;27.904;2023-07-24T03:42:26;19.37;;;14.60;;
11522;SDS011;70090;43.208;27.904;2023-07-24T03:44:55;15.77;;;14.17;;
11522;SDS011;70090;43.208;27.904;2023-07-24T03:47:22;16.50;;;13.77;;
11522;SDS011;70090;43.208;27.904;2023-07-24T03:49:50;18.43;;;12.80;;
11522;SDS011;70090;43.208;27.904;2023-07-24T03:52:17;17.70;;;11.83;;
11522;SDS011;70090;43.208;27.904;2023-07-24T03:54:44;13.80;;;11.70;;
11522;SDS011;70090;43.208;27.904;2023-07-24T03:57:11;15.70;;;11.53;;
11522;SDS011;70090;43.208;27.904;2023-07-24T03:59:38;14.53;;;10.53;;
11522;SDS011;70090;43.208;27.904;2023-07-24T04:02:06;13.67;;;11.23;;
11522;SDS011;70090;43.208;27.904;2023-07-24T04:04:33;13.10;;;11.30;;
11522;SDS011;70090;43.208;27.904;2023-07-24T04:06:59;15.57;;;12.47;;
11522;SDS011;70090;43.208;27.904;2023-07-24T04:09:26;18.70;;;12.93;;
11522;SDS011;70090;43.208;27.904;2023-07-24T04:11:53;19.67;;;12.77;;
11522;SDS011;70090;43.208;27.904;2023-07-24T04:14:20;18.87;;;12.17;;
11522;SDS011;70090;43.208;27.904;2023-07-24T04:16:47;13.47;;;11.63;;
11522;SDS011;70090;43.208;27.904;2023-07-24T04:19:15;19.90;;;11.93;;
11522;SDS011;70090;43.208;27.904;2023-07-24T04:21:42;17.87;;;12.10;;
11522;SDS011;70090;43.208;27.904;2023-07-24T04:24:09;12.60;;;11.17;;
11522;SDS011;70090;43.208;27.904;2023-07-24T04:26:36;15.07;;;12.77;;
11522;SDS011;70090;43.208;27.904;2023-07-24T04:29:04;16.23;;;11.27;;
11522;SDS011;70090;43.208;27.904;2023-07-24T04:31:31;19.50;;;13.60;;
11522;SDS011;70090;43.208;27.904;2023-07-24T04:33:58;14.20;;;12.70;;
11522;SDS011;70090;43.208;27.904;2023-07-24T04:36:26;14.63;;;10.90;;
11522;SDS011;70090;43.208;27.904;2023-07-24T04:38:53;16.37;;;11.90;;
11522;SDS011;70090;43.208;27.904;2023-07-24T04:41:20;14.13;;;11.23;;
11522;SDS011;70090;43.208;27.904;2023-07-24T04:43:47;17.30;;;11.33;;
11522;SDS011;70090;43.208;27.904;2023-07-24T04:46:13;13.83;;;11.50;;
11522;SDS011;70090;43.208;27.904;2023-07-24T04:48:40;15.90;;;11.50;;
11522;SDS011;70090;43.208;27.904;2023-07-24T04:51:07;14.27;;;10.70;;
11522;SDS011;70090;43.208;27.904;2023-07-24T04:53:35;15.83;;;11.70;;
11522;SDS011;70090;43.208;27.904;2023-07-24T04:56:02;13.57;;;12.13;;
11522;SDS011;70090;43.208;27.904;2023-07-24T04:58:29;15.90;;;11.67;;
11522;SDS011;70090;43.208;27.904;2023-07-24T05:00:56;12.63;;;10.93;;
11522;SDS011;70090;43.208;27.904;2023-07-24T05:03:23;12.17;;;10.93;;
11522;SDS011;70090;43.208;27.904;2023-07-24T05:05:53;17.03;;;11.50;;
11522;SDS011;70090;43.208;27.904;2023-07-24T05:08:21;15.10;;;11.17;;
11522;SDS011;70090;43.208;27.904;2023-07-24T05:10:54;14.80;;;12.37;;
11522;SDS011;70090;43.208;27.904;2023-07-24T05:13:21;14.50;;;13.03;;
11522;SDS011;70090;43.208;27.904;2023-07-24T05:15:48;15.27;;;11.97;;
11522;SDS011;70090;43.208;27.904;2023-07-24T05:18:15;15.83;;;12.97;;
11522;SDS011;70090;43.208;27.904;2023-07-24T05:20:45;16.13;;;11.70;;
11522;SDS011;70090;43.208;27.904;2023-07-24T05:23:13;15.43;;;13.33;;
11522;SDS011;70090;43.208;27.904;2023-07-24T05:25:40;19.30;;;12.33;;
11522;SDS011;70090;43.208;27.904;2023-07-24T05:28:09;14.40;;;13.00;;
11522;SDS011;70090;43.208;27.904;2023-07-24T05:30:36;19.80;;;14.20;;
11522;SDS011;70090;43.208;27.904;2023-07-24T05:33:03;19.47;;;13.33;;
11522;SDS011;70090;43.208;27.904;2023-07-24T05:35:30;21.83;;;14.00;;
11522;SDS011;70090;43.208;27.904;2023-07-24T05:37:56;18.13;;;14.20;;
11522;SDS011;70090;43.208;27.904;2023-07-24T05:40:23;15.40;;;13.80;;
11522;SDS011;70090;43.208;27.904;2023-07-24T05:42:50;17.00;;;13.60;;
11522;SDS011;70090;43.208;27.904;2023-07-24T05:45:18;16.93;;;13.73;;
11522;SDS011;70090;43.208;27.904;2023-07-24T05:47:45;17.03;;;13.77;;
11522;SDS011;70090;43.208;27.904;2023-07-24T05:50:12;20.53;;;14.03;;
11522;SDS011;70090;43.208;27.904;2023-07-24T05:52:39;16.57;;;13.50;;
11522;SDS011;70090;43.208;27.904;2023-07-24T05:55:07;20.20;;;13.90;;
11522;SDS011;70090;43.208;27.904;2023-07-24T05:57:34;19.93;;;13.43;;
11522;SDS011;70090;43.208;27.904;2023-07-24T06:00:01;16.83;;;12.90;;
11522;SDS011;70090;43.208;27.904;2023-07-24T06:02:31;17.13;;;13.10;;
11522;SDS011;70090;43.208;27.904;2023-07-24T06:04:58;21.50;;;11.93;;
11522;SDS011;70090;43.208;27.904;2023-07-24T06:07:25;20.93;;;12.13;;
11522;SDS011;70090;43.208;27.904;2023-07-24T06:09:52;18.90;;;10.80;;
11522;SDS011;70090;43.208;27.904;2023-07-24T06:12:18;13.43;;;10.13;;
11522;SDS011;70090;43.208;27.904;2023-07-24T06:14:45;11.50;;;9.50;;
11522;SDS011;70090;43.208;27.904;2023-07-24T06:17:12;15.77;;;9.97;;
11522;SDS011;70090;43.208;27.904;2023-07-24T06:19:40;19.90;;;10.30;;
11522;SDS011;70090;43.208;27.904;2023-07-24T06:22:07;12.40;;;8.30;;
11522;SDS011;70090;43.208;27.904;2023-07-24T06:24:34;12.80;;;9.60;;
11522;SDS011;70090;43.208;27.904;2023-07-24T06:27:01;14.23;;;9.33;;
11522;SDS011;70090;43.208;27.904;2023-07-24T06:29:28;18.83;;;9.67;;
11522;SDS011;70090;43.208;27.904;2023-07-24T06:31:54;11.77;;;9.60;;
11522;SDS011;70090;43.208;27.904;2023-07-24T06:34:21;15.30;;;8.67;;
11522;SDS011;70090;43.208;27.904;2023-07-24T06:36:50;11.13;;;8.83;;
11522;SDS011;70090;43.208;27.904;2023-07-24T06:39:16;11.47;;;8.40;;
11522;SDS011;70090;43.208;27.904;2023-07-24T06:41:44;9.73;;;7.63;;
11522;SDS011;70090;43.208;27.904;2023-07-24T06:44:11;11.50;;;8.03;;
11522;SDS011;70090;43.208;27.904;2023-07-24T06:46:37;8.90;;;7.40;;
11522;SDS011;70090;43.208;27.904;2023-07-24T06:49:04;9.97;;;7.13;;
11522;SDS011;70090;43.208;27.904;2023-07-24T06:51:31;7.97;;;6.80;;
11522;SDS011;70090;43.208;27.904;2023-07-24T06:53:59;7.63;;;5.77;;
11522;SDS011;70090;43.208;27.904;2023-07-24T06:56:27;4.43;;;4.03;;
11522;SDS011;70090;43.208;27.904;2023-07-24T06:58:54;6.50;;;5.10;;
11522;SDS011;70090;43.208;27.904;2023-07-24T07:01:21;6.60;;;4.53;;
11522;SDS011;70090;43.208;27.904;2023-07-24T07:03:48;7.23;;;4.40;;
11522;SDS011;70090;43.208;27.904;2023-07-24T07:06:15;4.63;;;4.20;;
11522;SDS011;70090;43.208;27.904;2023-07-24T07:08:42;5.50;;;4.93;;
11522;SDS011;70090;43.208;27.904;2023-07-24T07:11:10;4.83;;;3.80;;
11522;SDS011;70090;43.208;27.904;2023-07-24T07:13:37;7.87;;;4.43;;
11522;SDS011;70090;43.208;27.904;2023-07-24T07:16:04;4.50;;;3.90;;
11522;SDS011;70090;43.208;27.904;2023-07-24T07:18:31;6.53;;;4.20;;
11522;SDS011;70090;43.208;27.904;2023-07-24T07:20:58;5.10;;;4.30;;
11522;SDS011;70090;43.208;27.904;2023-07-24T07:23:25;8.90;;;4.77;;
11522;SDS011;70090;43.208;27.904;2023-07-24T07:25:51;5.87;;;4.67;;
11522;SDS011;70090;43.208;27.904;2023-07-24T07:28:20;6.13;;;4.53;;
11522;SDS011;70090;43.208;27.904;2023-07-24T07:30:47;11.47;;;5.43;;
11522;SDS011;70090;43.208;27.904;2023-07-24T07:33:13;7.37;;;5.37;;
11522;SDS011;70090;43.208;27.904;2023-07-24T07:35:40;7.93;;;5.17;;
11522;SDS011;70090;43.208;27.904;2023-07-24T07:38:07;9.13;;;6.00;;
11522;SDS011;70090;43.208;27.904;2023-07-24T07:40:36;7.33;;;5.33;;
11522;SDS011;70090;43.208;27.904;2023-07-24T07:43:04;7.30;;;5.40;;
11522;SDS011;70090;43.208;27.904;2023-07-24T07:45:32;7.43;;;5.73;;
11522;SDS011;70090;43.208;27.904;2023-07-24T07:48:00;6.77;;;5.47;;
11522;SDS011;70090;43.208;27.904;2023-07-24T07:50:26;6.87;;;6.27;;
11522;SDS011;70090;43.208;27.904;2023-07-24T07:52:53;6.57;;;5.47;;
11522;SDS011;70090;43.208;27.904;2023-07-24T07:55:20;12.00;;;6.43;;
11522;SDS011;70090;43.208;27.904;2023-07-24T07:57:47;8.70;;;6.13;;
11522;SDS011;70090;43.208;27.904;2023-07-24T08:00:14;6.33;;;5.67;;
11522;SDS011;70090;43.208;27.904;2023-07-24T08:02:43;8.23;;;6.10;;
11522;SDS011;70090;43.208;27.904;2023-07-24T08:05:10;6.83;;;6.10;;
11522;SDS011;70090;43.208;27.904;2023-07-24T08:07:37;6.83;;;5.23;;
11522;SDS011;70090;43.208;27.904;2023-07-24T08:10:04;9.00;;;5.80;;
11522;SDS011;70090;43.208;27.904;2023-07-24T08:12:32;5.77;;;5.27;;
11522;SDS011;70090;43.208;27.904;2023-07-24T08:14:59;6.47;;;5.20;;
11522;SDS011;70090;43.208;27.904;2023-07-24T08:17:26;6.20;;;5.20;;
11522;SDS011;70090;43.208;27.904;2023-07-24T08:19:54;6.00;;;5.40;;
11522;SDS011;70090;43.208;27.904;2023-07-24T08:22:21;6.20;;;5.60;;
11522;SDS011;70090;43.208;27.904;2023-07-24T08:24:48;5.87;;;5.37;;
11522;SDS011;70090;43.208;27.904;2023-07-24T08:27:16;5.80;;;5.10;;
11522;SDS011;70090;43.208;27.904;2023-07-24T08:29:43;6.03;;;4.57;;
11522;SDS011;70090;43.208;27.904;2023-07-24T08:32:10;6.53;;;5.37;;
11522;SDS011;70090;43.208;27.904;2023-07-24T08:34:38;6.50;;;5.50;;
11522;SDS011;70090;43.208;27.904;2023-07-24T08:37:06;5.63;;;4.57;;
11522;SDS011;70090;43.208;27.904;2023-07-24T08:39:33;5.50;;;4.97;;
11522;SDS011;70090;43.208;27.904;2023-07-24T08:42:07;5.43;;;4.77;;
11522;SDS011;70090;43.208;27.904;2023-07-24T08:44:35;5.20;;;4.70;;
11522;SDS011;70090;43.208;27.904;2023-07-24T08:47:03;4.97;;;4.47;;
11522;SDS011;70090;43.208;27.904;2023-07-24T08:49:31;4.83;;;4.33;;
11522;SDS011;70090;43.208;27.904;2023-07-24T08:51:59;6.13;;;4.90;;
11522;SDS011;70090;43.208;27.904;2023-07-24T08:54:29;7.33;;;4.70;;
11522;SDS011;70090;43.208;27.904;2023-07-24T08:56:57;6.27;;;4.80;;
11522;SDS011;70090;43.208;27.904;2023-07-24T08:59:23;5.60;;;4.70;;
11522;SDS011;70090;43.208;27.904;2023-07-24T09:01:50;5.70;;;4.70;;
11522;SDS011;70090;43.208;27.904;2023-07-24T09:04:17;5.47;;;4.77;;
11522;SDS011;70090;43.208;27.904;2023-07-24T09:06:44;5.07;;;4.53;;
11522;SDS011;70090;43.208;27.904;2023-07-24T09:09:12;6.50;;;4.70;;
11522;SDS011;70090;43.208;27.904;2023-07-24T09:11:48;5.13;;;4.73;;
11522;SDS011;70090;43.208;27.904;2023-07-24T09:14:22;6.67;;;5.13;;
11522;SDS011;70090;43.208;27.904;2023-07-24T09:16:49;6.77;;;5.00;;
11522;SDS011;70090;43.208;27.904;2023-07-24T09:19:27;5.53;;;5.00;;
11522;SDS011;70090;43.208;27.904;2023-07-24T09:21:54;4.93;;;4.47;;
11522;SDS011;70090;43.208;27.904;2023-07-24T09:24:21;5.27;;;4.30;;
11522;SDS011;70090;43.208;27.904;2023-07-24T09:26:50;5.43;;;4.40;;
11522;SDS011;70090;43.208;27.904;2023-07-24T09:29:18;8.47;;;5.40;;
11522;SDS011;70090;43.208;27.904;2023-07-24T09:31:47;7.23;;;4.97;;
11522;SDS011;70090;43.208;27.904;2023-07-24T09:34:18;6.93;;;5.10;;
11522;SDS011;70090;43.208;27.904;2023-07-24T09:36:45;7.33;;;5.23;;
11522;SDS011;70090;43.208;27.904;2023-07-24T09:39:12;4.57;;;4.17;;
11522;SDS011;70090;43.208;27.904;2023-07-24T09:41:39;5.77;;;4.13;;
11522;SDS011;70090;43.208;27.904;2023-07-24T09:44:07;6.40;;;4.47;;
11522;SDS011;70090;43.208;27.904;2023-07-24T09:46:34;4.67;;;4.27;;
11522;SDS011;70090;43.208;27.904;2023-07-24T09:49:01;6.53;;;4.87;;
11522;SDS011;70090;43.208;27.904;2023-07-24T09:51:29;4.60;;;4.20;;
11522;SDS011;70090;43.208;27.904;2023-07-24T09:53:58;7.17;;;4.43;;
11522;SDS011;70090;43.208;27.904;2023-07-24T09:56:32;5.43;;;4.30;;
11522;SDS011;70090;43.208;27.904;2023-07-24T09:58:59;8.87;;;4.43;;
11522;SDS011;70090;43.208;27.904;2023-07-24T10:01:29;4.57;;;4.17;;
11522;SDS011;70090;43.208;27.904;2023-07-24T10:03:57;5.50;;;4.17;;
11522;SDS011;70090;43.208;27.904;2023-07-24T10:06:26;5.00;;;4.13;;
11522;SDS011;70090;43.208;27.904;2023-07-24T10:08:55;5.30;;;4.07;;
11522;SDS011;70090;43.208;27.904;2023-07-24T10:11:23;5.30;;;4.80;;
11522;SDS011;70090;43.208;27.904;2023-07-24T10:13:52;5.93;;;5.33;;
11522;SDS011;70090;43.208;27.904;2023-07-24T10:16:20;6.23;;;4.30;;
11522;SDS011;70090;43.208;27.904;2023-07-24T10:18:48;5.83;;;5.10;;
11522;SDS011;70090;43.208;27.904;2023-07-24T10:21:15;4.93;;;4.40;;
11522;SDS011;70090;43.208;27.904;2023-07-24T10:23:43;4.83;;;4.30;;
11522;SDS011;70090;43.208;27.904;2023-07-24T10:26:11;4.97;;;4.43;;
11522;SDS011;70090;43.208;27.904;2023-07-24T10:28:40;6.03;;;4.40;;
11522;SDS011;70090;43.208;27.904;2023-07-24T10:31:07;4.97;;;4.50;;
11522;SDS011;70090;43.208;27.904;2023-07-24T10:33:45;8.57;;;4.73;;
11522;SDS011;70090;43.208;27.904;2023-07-24T10:36:16;6.50;;;4.73;;
11522;SDS011;70090;43.208;27.904;2023-07-24T10:38:45;6.07;;;4.83;;
11522;SDS011;70090;43.208;27.904;2023-07-24T10:41:13;7.17;;;5.10;;
11522;SDS011;70090;43.208;27.904;2023-07-24T10:43:40;5.13;;;4.63;;
11522;SDS011;70090;43.208;27.904;2023-07-24T10:46:08;5.80;;;5.23;;
11522;SDS011;70090;43.208;27.904;2023-07-24T10:48:35;8.97;;;5.03;;
11522;SDS011;70090;43.208;27.904;2023-07-24T10:51:05;7.63;;;5.70;;
11522;SDS011;70090;43.208;27.904;2023-07-24T10:53:35;5.30;;;4.80;;
11522;SDS011;70090;43.208;27.904;2023-07-24T10:56:03;6.00;;;5.40;;
11522;SDS011;70090;43.208;27.904;2023-07-24T10:58:30;6.43;;;5.17;;
11522;SDS011;70090;43.208;27.904;2023-07-24T11:00:58;6.83;;;5.03;;
11522;SDS011;70090;43.208;27.904;2023-07-24T11:03:25;7.43;;;5.70;;
11522;SDS011;70090;43.208;27.904;2023-07-24T11:05:53;8.03;;;5.43;;
11522;SDS011;70090;43.208;27.904;2023-07-24T11:08:20;6.53;;;5.60;;
11522;SDS011;70090;43.208;27.904;2023-07-24T11:10:49;10.23;;;5.17;;
11522;SDS011;70090;43.208;27.904;2023-07-24T11:13:18;7.37;;;4.90;;
11522;SDS011;70090;43.208;27.904;2023-07-24T11:15:47;6.37;;;4.90;;
11522;SDS011;70090;43.208;27.904;2023-07-24T11:18:15;5.30;;;4.80;;
11522;SDS011;70090;43.208;27.904;2023-07-24T11:20:44;6.57;;;4.57;;
11522;SDS011;70090;43.208;27.904;2023-07-24T11:23:11;6.30;;;4.90;;
11522;SDS011;70090;43.208;27.904;2023-07-24T11:25:38;5.53;;;4.90;;
11522;SDS011;70090;43.208;27.904;2023-07-24T11:28:07;5.80;;;5.20;;
11522;SDS011;70090;43.208;27.904;2023-07-24T11:30:38;5.63;;;5.03;;
11522;SDS011;70090;43.208;27.904;2023-07-24T11:33:05;5.53;;;5.00;;
11522;SDS011;70090;43.208;27.904;2023-07-24T11:35:34;5.20;;;4.70;;
11522;SDS011;70090;43.208;27.904;2023-07-24T11:38:03;5.87;;;4.60;;
11522;SDS011;70090;43.208;27.904;2023-07-24T11:40:31;6.77;;;5.20;;
11522;SDS011;70090;43.208;27.904;2023-07-24T11:43:00;6.57;;;5.33;;
11522;SDS011;70090;43.208;27.904;2023-07-24T11:45:28;5.40;;;4.90;;
11522;SDS011;70090;43.208;27.904;2023-07-24T11:47:55;6.63;;;5.27;;
11522;SDS011;70090;43.208;27.904;2023-07-24T11:50:22;5.70;;;5.07;;
11522;SDS011;70090;43.208;27.904;2023-07-24T11:52:50;7.33;;;5.17;;
11522;SDS011;70090;43.208;27.904;2023-07-24T11:55:18;5.87;;;5.10;;
11522;SDS011;70090;43.208;27.904;2023-07-24T11:57:56;5.03;;;4.53;;
11522;SDS011;70090;43.208;27.904;2023-07-24T12:00:24;6.30;;;5.70;;
11522;SDS011;70090;43.208;27.904;2023-07-24T12:02:52;5.77;;;4.90;;
11522;SDS011;70090;43.208;27.904;2023-07-24T12:05:19;6.47;;;5.20;;
11522;SDS011;70090;43.208;27.904;2023-07-24T12:07:46;6.33;;;4.80;;
11522;SDS011;70090;43.208;27.904;2023-07-24T12:10:24;5.10;;;4.67;;
11522;SDS011;70090;43.208;27.904;2023-07-24T12:12:52;5.13;;;4.63;;
11522;SDS011;70090;43.208;27.904;2023-07-24T12:15:20;4.93;;;4.43;;
11522;SDS011;70090;43.208;27.904;2023-07-24T12:17:47;5.07;;;4.57;;
11522;SDS011;70090;43.208;27.904;2023-07-24T12:20:16;6.23;;;5.03;;
11522;SDS011;70090;43.208;27.904;2023-07-24T12:22:42;6.53;;;4.83;;
11522;SDS011;70090;43.208;27.904;2023-07-24T12:25:09;6.37;;;4.60;;
11522;SDS011;70090;43.208;27.904;2023-07-24T12:27:36;7.80;;;5.80;;
11522;SDS011;70090;43.208;27.904;2023-07-24T12:30:05;5.63;;;4.97;;
11522;SDS011;70090;43.208;27.904;2023-07-24T12:32:33;6.00;;;4.67;;
11522;SDS011;70090;43.208;27.904;2023-07-24T12:35:00;19.73;;;18.27;;
11522;SDS011;70090;43.208;27.904;2023-07-24T12:37:28;8.40;;;5.40;;
11522;SDS011;70090;43.208;27.904;2023-07-24T12:39:55;4.70;;;4.30;;
11522;SDS011;70090;43.208;27.904;2023-07-24T12:42:22;4.87;;;4.47;;
11522;SDS011;70090;43.208;27.904;2023-07-24T12:44:49;6.30;;;4.83;;
11522;SDS011;70090;43.208;27.904;2023-07-24T12:47:16;5.30;;;4.80;;
11522;SDS011;70090;43.208;27.904;2023-07-24T12:49:43;5.73;;;4.83;;
11522;SDS011;70090;43.208;27.904;2023-07-24T12:52:10;7.50;;;4.90;;
11522;SDS011;70090;43.208;27.904;2023-07-24T12:54:38;7.43;;;4.80;;
11522;SDS011;70090;43.208;27.904;2023-07-24T12:57:05;5.73;;;4.60;;
11522;SDS011;70090;43.208;27.904;2023-07-24T12:59:32;6.60;;;4.67;;
11522;SDS011;70090;43.208;27.904;2023-07-24T13:01:59;8.13;;;4.87;;
11522;SDS011;70090;43.208;27.904;2023-07-24T13:04:26;5.50;;;4.60;;
11522;SDS011;70090;43.208;27.904;2023-07-24T13:06:53;5.87;;;4.60;;
11522;SDS011;70090;43.208;27.904;2023-07-24T13:09:19;4.80;;;4.10;;
11522;SDS011;70090;43.208;27.904;2023-07-24T13:11:50;6.67;;;4.50;;
11522;SDS011;70090;43.208;27.904;2023-07-24T13:14:19;7.67;;;4.63;;
11522;SDS011;70090;43.208;27.904;2023-07-24T13:16:46;6.10;;;4.20;;
11522;SDS011;70090;43.208;27.904;2023-07-24T13:19:13;4.80;;;4.30;;
11522;SDS011;70090;43.208;27.904;2023-07-24T13:21:40;5.70;;;4.40;;
11522;SDS011;70090;43.208;27.904;2023-07-24T13:24:08;4.87;;;4.40;;
11522;SDS011;70090;43.208;27.904;2023-07-24T13:26:35;5.10;;;4.13;;
11522;SDS011;70090;43.208;27.904;2023-07-24T13:29:03;4.90;;;4.40;;
11522;SDS011;70090;43.208;27.904;2023-07-24T13:31:30;6.17;;;4.57;;
11522;SDS011;70090;43.208;27.904;2023-07-24T13:33:57;6.37;;;4.60;;
11522;SDS011;70090;43.208;27.904;2023-07-24T13:36:24;6.63;;;4.50;;
11522;SDS011;70090;43.208;27.904;2023-07-24T13:38:51;6.83;;;4.33;;
11522;SDS011;70090;43.208;27.904;2023-07-24T13:41:18;4.97;;;4.53;;
11522;SDS011;70090;43.208;27.904;2023-07-24T13:43:45;5.13;;;4.20;;
11522;SDS011;70090;43.208;27.904;2023-07-24T13:46:14;5.17;;;4.10;;
11522;SDS011;70090;43.208;27.904;2023-07-24T13:48:41;4.67;;;4.17;;
11522;SDS011;70090;43.208;27.904;2023-07-24T13:51:07;4.63;;;4.07;;
11522;SDS011;70090;43.208;27.904;2023-07-24T13:53:34;5.33;;;4.13;;
11522;SDS011;70090;43.208;27.904;2023-07-24T13:56:01;5.03;;;4.53;;
11522;SDS011;70090;43.208;27.904;2023-07-24T13:58:28;6.50;;;4.73;;
11522;SDS011;70090;43.208;27.904;2023-07-24T14:00:55;6.43;;;4.93;;
11522;SDS011;70090;43.208;27.904;2023-07-24T14:03:23;6.27;;;4.57;;
11522;SDS011;70090;43.208;27.904;2023-07-24T14:05:54;8.23;;;4.20;;
11522;SDS011;70090;43.208;27.904;2023-07-24T14:08:21;4.67;;;4.27;;
11522;SDS011;70090;43.208;27.904;2023-07-24T14:10:48;6.60;;;4.00;;
11522;SDS011;70090;43.208;27.904;2023-07-24T14:13:15;6.77;;;4.60;;
11522;SDS011;70090;43.208;27.904;2023-07-24T14:15:41;5.60;;;5.00;;
11522;SDS011;70090;43.208;27.904;2023-07-24T14:18:08;6.00;;;5.50;;
11522;SDS011;70090;43.208;27.904;2023-07-24T14:20:37;4.93;;;4.43;;
11522;SDS011;70090;43.208;27.904;2023-07-24T14:23:05;7.60;;;4.63;;
11522;SDS011;70090;43.208;27.904;2023-07-24T14:25:32;4.67;;;4.17;;